sensor_id;sensor_type;location;lat;lon;timestamp;P1;durP1;ratioP1;P2;durP2;ratioP2
26634;SDS011;14490;54.208;37.686;2023-05-10T00:01:51;3.72;;;3.05;;
26634;SDS011;14490;54.208;37.686;2023-05-10T00:04:21;4.05;;;2.80;;
26634;SDS011;14490;54.208;37.686;2023-05-10T00:06:48;6.55;;;2.70;;
26634;SDS011;14490;54.208;37.686;2023-05-10T00:09:15;4.00;;;3.08;;
26634;SDS011;14490;54.208;37.686;2023-05-10T00:11:43;10.95;;;3.25;;
26634;SDS011;14490;54.208;37.686;2023-05-10T00:14:11;4.18;;;2.97;;
26634;SDS011;14490;54.208;37.686;2023-05-10T00:16:38;5.22;;;3.10;;
26634;SDS011;14490;54.208;37.686;2023-05-10T00:19:05;4.18;;;3.03;;
26634;SDS011;14490;54.208;37.686;2023-05-10T00:21:32;4.55;;;2.97;;
26634;SDS011;14490;54.208;37.686;2023-05-10T00:23:59;3.63;;;2.75;;
26634;SDS011;14490;54.208;37.686;2023-05-10T00:26:26;8.45;;;2.55;;
26634;SDS011;14490;54.208;37.686;2023-05-10T00:28:55;4.72;;;2.90;;
26634;SDS011;14490;54.208;37.686;2023-05-10T00:31:23;5.88;;;3.28;;
26634;SDS011;14490;54.208;37.686;2023-05-10T00:33:50;7.60;;;3.78;;
26634;SDS011;14490;54.208;37.686;2023-05-10T00:36:17;13.27;;;3.50;;
26634;SDS011;14490;54.208;37.686;2023-05-10T00:38:45;7.03;;;3.13;;
26634;SDS011;14490;54.208;37.686;2023-05-10T00:41:13;6.47;;;2.90;;
26634;SDS011;14490;54.208;37.686;2023-05-10T00:43:40;9.13;;;2.53;;
26634;SDS011;14490;54.208;37.686;2023-05-10T00:46:09;11.70;;;3.97;;
26634;SDS011;14490;54.208;37.686;2023-05-10T00:48:36;5.80;;;3.45;;
26634;SDS011;14490;54.208;37.686;2023-05-10T00:51:03;3.75;;;3.05;;
26634;SDS011;14490;54.208;37.686;2023-05-10T00:53:31;6.35;;;3.13;;
26634;SDS011;14490;54.208;37.686;2023-05-10T00:55:58;4.53;;;3.33;;
26634;SDS011;14490;54.208;37.686;2023-05-10T00:58:25;8.73;;;3.08;;
26634;SDS011;14490;54.208;37.686;2023-05-10T01:00:54;6.53;;;2.47;;
26634;SDS011;14490;54.208;37.686;2023-05-10T01:03:24;7.63;;;3.20;;
26634;SDS011;14490;54.208;37.686;2023-05-10T01:05:51;8.73;;;2.97;;
26634;SDS011;14490;54.208;37.686;2023-05-10T01:08:18;4.00;;;2.80;;
26634;SDS011;14490;54.208;37.686;2023-05-10T01:10:45;8.38;;;2.45;;
26634;SDS011;14490;54.208;37.686;2023-05-10T01:13:15;4.78;;;2.90;;
26634;SDS011;14490;54.208;37.686;2023-05-10T01:15:56;5.72;;;2.85;;
26634;SDS011;14490;54.208;37.686;2023-05-10T01:18:24;4.55;;;3.10;;
26634;SDS011;14490;54.208;37.686;2023-05-10T01:20:54;3.00;;;2.40;;
26634;SDS011;14490;54.208;37.686;2023-05-10T01:23:36;8.52;;;2.92;;
26634;SDS011;14490;54.208;37.686;2023-05-10T01:29:33;6.45;;;2.60;;
26634;SDS011;14490;54.208;37.686;2023-05-10T01:32:17;3.85;;;2.63;;
26634;SDS011;14490;54.208;37.686;2023-05-10T01:34:52;4.07;;;2.80;;
26634;SDS011;14490;54.208;37.686;2023-05-10T01:37:23;5.90;;;3.20;;
26634;SDS011;14490;54.208;37.686;2023-05-10T01:39:55;4.18;;;3.28;;
26634;SDS011;14490;54.208;37.686;2023-05-10T01:42:28;6.85;;;3.28;;
26634;SDS011;14490;54.208;37.686;2023-05-10T01:45:06;3.70;;;2.75;;
26634;SDS011;14490;54.208;37.686;2023-05-10T01:47:40;7.07;;;3.38;;
26634;SDS011;14490;54.208;37.686;2023-05-10T01:50:09;6.50;;;3.10;;
26634;SDS011;14490;54.208;37.686;2023-05-10T01:52:41;6.90;;;2.80;;
26634;SDS011;14490;54.208;37.686;2023-05-10T01:55:10;5.47;;;2.78;;
26634;SDS011;14490;54.208;37.686;2023-05-10T01:57:40;3.42;;;2.90;;
26634;SDS011;14490;54.208;37.686;2023-05-10T02:00:10;5.70;;;3.28;;
26634;SDS011;14490;54.208;37.686;2023-05-10T02:02:40;4.47;;;2.70;;
26634;SDS011;14490;54.208;37.686;2023-05-10T02:05:08;4.80;;;2.67;;
26634;SDS011;14490;54.208;37.686;2023-05-10T02:07:36;3.97;;;2.33;;
26634;SDS011;14490;54.208;37.686;2023-05-10T02:10:04;5.78;;;3.05;;
26634;SDS011;14490;54.208;37.686;2023-05-10T02:12:33;2.90;;;2.67;;
26634;SDS011;14490;54.208;37.686;2023-05-10T02:15:02;3.88;;;2.45;;
26634;SDS011;14490;54.208;37.686;2023-05-10T02:17:31;11.32;;;2.80;;
26634;SDS011;14490;54.208;37.686;2023-05-10T02:20:00;2.92;;;2.53;;
26634;SDS011;14490;54.208;37.686;2023-05-10T02:22:31;8.60;;;3.88;;
26634;SDS011;14490;54.208;37.686;2023-05-10T02:24:58;5.28;;;2.75;;
26634;SDS011;14490;54.208;37.686;2023-05-10T02:27:26;3.83;;;2.28;;
26634;SDS011;14490;54.208;37.686;2023-05-10T02:29:54;3.42;;;2.00;;
26634;SDS011;14490;54.208;37.686;2023-05-10T02:32:21;3.13;;;2.45;;
26634;SDS011;14490;54.208;37.686;2023-05-10T02:34:49;8.13;;;2.80;;
26634;SDS011;14490;54.208;37.686;2023-05-10T02:37:18;4.47;;;2.47;;
26634;SDS011;14490;54.208;37.686;2023-05-10T02:39:46;3.45;;;2.47;;
26634;SDS011;14490;54.208;37.686;2023-05-10T02:42:15;3.42;;;2.30;;
26634;SDS011;14490;54.208;37.686;2023-05-10T02:44:45;2.83;;;2.20;;
26634;SDS011;14490;54.208;37.686;2023-05-10T02:47:14;6.32;;;2.45;;
26634;SDS011;14490;54.208;37.686;2023-05-10T02:49:41;4.32;;;2.22;;
26634;SDS011;14490;54.208;37.686;2023-05-10T02:52:09;5.38;;;2.47;;
26634;SDS011;14490;54.208;37.686;2023-05-10T02:54:39;3.33;;;2.03;;
26634;SDS011;14490;54.208;37.686;2023-05-10T02:57:11;2.65;;;1.70;;
26634;SDS011;14490;54.208;37.686;2023-05-10T02:59:43;2.47;;;2.28;;
26634;SDS011;14490;54.208;37.686;2023-05-10T03:02:10;2.03;;;1.83;;
26634;SDS011;14490;54.208;37.686;2023-05-10T03:04:39;2.70;;;1.98;;
26634;SDS011;14490;54.208;37.686;2023-05-10T03:07:06;4.28;;;1.98;;
26634;SDS011;14490;54.208;37.686;2023-05-10T03:09:33;2.75;;;2.00;;
26634;SDS011;14490;54.208;37.686;2023-05-10T03:12:04;3.10;;;2.47;;
26634;SDS011;14490;54.208;37.686;2023-05-10T03:14:42;3.92;;;2.40;;
26634;SDS011;14490;54.208;37.686;2023-05-10T03:17:15;4.18;;;2.35;;
26634;SDS011;14490;54.208;37.686;2023-05-10T03:19:48;3.38;;;1.98;;
26634;SDS011;14490;54.208;37.686;2023-05-10T03:22:21;2.20;;;1.85;;
26634;SDS011;14490;54.208;37.686;2023-05-10T03:24:51;3.70;;;2.38;;
26634;SDS011;14490;54.208;37.686;2023-05-10T03:27:25;2.53;;;2.20;;
26634;SDS011;14490;54.208;37.686;2023-05-10T03:29:57;5.70;;;2.10;;
26634;SDS011;14490;54.208;37.686;2023-05-10T03:32:24;3.58;;;2.40;;
26634;SDS011;14490;54.208;37.686;2023-05-10T03:34:52;2.80;;;1.83;;
26634;SDS011;14490;54.208;37.686;2023-05-10T03:37:19;7.50;;;2.63;;
26634;SDS011;14490;54.208;37.686;2023-05-10T03:39:46;5.07;;;2.25;;
26634;SDS011;14490;54.208;37.686;2023-05-10T03:42:13;6.75;;;4.03;;
26634;SDS011;14490;54.208;37.686;2023-05-10T03:44:44;5.43;;;2.40;;
26634;SDS011;14490;54.208;37.686;2023-05-10T03:47:11;3.65;;;2.45;;
26634;SDS011;14490;54.208;37.686;2023-05-10T03:49:38;7.38;;;2.28;;
26634;SDS011;14490;54.208;37.686;2023-05-10T03:52:05;5.22;;;2.15;;
26634;SDS011;14490;54.208;37.686;2023-05-10T03:54:32;2.92;;;2.20;;
26634;SDS011;14490;54.208;37.686;2023-05-10T03:57:00;2.60;;;2.10;;
26634;SDS011;14490;54.208;37.686;2023-05-10T03:59:28;5.95;;;2.75;;
26634;SDS011;14490;54.208;37.686;2023-05-10T04:01:56;4.80;;;2.40;;
26634;SDS011;14490;54.208;37.686;2023-05-10T04:04:23;8.05;;;2.75;;
26634;SDS011;14490;54.208;37.686;2023-05-10T04:06:51;5.95;;;2.10;;
26634;SDS011;14490;54.208;37.686;2023-05-10T04:09:18;5.00;;;2.00;;
26634;SDS011;14490;54.208;37.686;2023-05-10T04:11:45;7.25;;;1.95;;
26634;SDS011;14490;54.208;37.686;2023-05-10T04:14:12;6.82;;;1.90;;
26634;SDS011;14490;54.208;37.686;2023-05-10T04:16:39;2.80;;;2.05;;
26634;SDS011;14490;54.208;37.686;2023-05-10T04:19:07;5.05;;;1.80;;
26634;SDS011;14490;54.208;37.686;2023-05-10T04:21:34;2.25;;;1.90;;
26634;SDS011;14490;54.208;37.686;2023-05-10T04:24:03;3.33;;;2.15;;
26634;SDS011;14490;54.208;37.686;2023-05-10T04:26:30;8.55;;;1.95;;
26634;SDS011;14490;54.208;37.686;2023-05-10T04:28:57;10.20;;;2.13;;
26634;SDS011;14490;54.208;37.686;2023-05-10T04:31:24;3.90;;;2.00;;
26634;SDS011;14490;54.208;37.686;2023-05-10T04:33:54;9.38;;;2.55;;
26634;SDS011;14490;54.208;37.686;2023-05-10T04:38:55;11.50;;;2.45;;
26634;SDS011;14490;54.208;37.686;2023-05-10T04:41:25;3.40;;;2.05;;
26634;SDS011;14490;54.208;37.686;2023-05-10T04:43:56;3.42;;;2.00;;
26634;SDS011;14490;54.208;37.686;2023-05-10T04:46:23;4.95;;;1.95;;
26634;SDS011;14490;54.208;37.686;2023-05-10T04:48:53;3.45;;;1.92;;
26634;SDS011;14490;54.208;37.686;2023-05-10T04:51:20;4.53;;;2.60;;
26634;SDS011;14490;54.208;37.686;2023-05-10T04:53:50;3.10;;;2.05;;
26634;SDS011;14490;54.208;37.686;2023-05-10T04:56:18;5.20;;;1.98;;
26634;SDS011;14490;54.208;37.686;2023-05-10T04:58:45;4.07;;;2.10;;
26634;SDS011;14490;54.208;37.686;2023-05-10T05:01:12;4.03;;;2.30;;
26634;SDS011;14490;54.208;37.686;2023-05-10T05:03:39;3.67;;;1.80;;
26634;SDS011;14490;54.208;37.686;2023-05-10T05:06:06;5.30;;;2.33;;
26634;SDS011;14490;54.208;37.686;2023-05-10T05:08:36;9.48;;;2.08;;
26634;SDS011;14490;54.208;37.686;2023-05-10T05:11:07;8.80;;;2.13;;
26634;SDS011;14490;54.208;37.686;2023-05-10T05:13:34;3.33;;;2.10;;
26634;SDS011;14490;54.208;37.686;2023-05-10T05:16:01;2.88;;;2.42;;
26634;SDS011;14490;54.208;37.686;2023-05-10T05:18:29;5.30;;;2.03;;
26634;SDS011;14490;54.208;37.686;2023-05-10T05:20:57;5.35;;;2.72;;
26634;SDS011;14490;54.208;37.686;2023-05-10T05:23:24;6.18;;;2.55;;
26634;SDS011;14490;54.208;37.686;2023-05-10T05:25:52;7.90;;;1.95;;
26634;SDS011;14490;54.208;37.686;2023-05-10T05:28:21;11.15;;;2.33;;
26634;SDS011;14490;54.208;37.686;2023-05-10T05:30:48;4.40;;;2.67;;
26634;SDS011;14490;54.208;37.686;2023-05-10T05:33:15;3.10;;;2.60;;
26634;SDS011;14490;54.208;37.686;2023-05-10T05:35:42;4.75;;;2.30;;
26634;SDS011;14490;54.208;37.686;2023-05-10T05:38:15;2.53;;;2.33;;
26634;SDS011;14490;54.208;37.686;2023-05-10T05:40:42;5.72;;;2.45;;
26634;SDS011;14490;54.208;37.686;2023-05-10T05:43:10;5.65;;;2.40;;
26634;SDS011;14490;54.208;37.686;2023-05-10T05:45:39;5.28;;;2.65;;
26634;SDS011;14490;54.208;37.686;2023-05-10T05:48:09;2.28;;;2.10;;
26634;SDS011;14490;54.208;37.686;2023-05-10T05:50:37;5.35;;;2.55;;
26634;SDS011;14490;54.208;37.686;2023-05-10T05:53:04;4.28;;;2.22;;
26634;SDS011;14490;54.208;37.686;2023-05-10T05:55:31;3.45;;;2.38;;
26634;SDS011;14490;54.208;37.686;2023-05-10T05:58:01;3.78;;;2.72;;
26634;SDS011;14490;54.208;37.686;2023-05-10T06:00:30;14.15;;;3.17;;
26634;SDS011;14490;54.208;37.686;2023-05-10T06:02:59;5.20;;;2.80;;
26634;SDS011;14490;54.208;37.686;2023-05-10T06:05:26;11.25;;;3.13;;
26634;SDS011;14490;54.208;37.686;2023-05-10T06:07:53;8.38;;;2.45;;
26634;SDS011;14490;54.208;37.686;2023-05-10T06:10:20;5.57;;;2.63;;
26634;SDS011;14490;54.208;37.686;2023-05-10T06:12:47;9.02;;;2.80;;
26634;SDS011;14490;54.208;37.686;2023-05-10T06:15:18;3.28;;;2.40;;
26634;SDS011;14490;54.208;37.686;2023-05-10T06:17:47;4.78;;;2.65;;
26634;SDS011;14490;54.208;37.686;2023-05-10T06:20:18;4.97;;;2.30;;
26634;SDS011;14490;54.208;37.686;2023-05-10T06:22:45;6.43;;;2.30;;
26634;SDS011;14490;54.208;37.686;2023-05-10T06:25:12;4.05;;;2.00;;
26634;SDS011;14490;54.208;37.686;2023-05-10T06:27:40;3.17;;;1.80;;
26634;SDS011;14490;54.208;37.686;2023-05-10T06:30:10;6.05;;;2.28;;
26634;SDS011;14490;54.208;37.686;2023-05-10T06:35:54;6.90;;;1.98;;
26634;SDS011;14490;54.208;37.686;2023-05-10T06:38:27;2.08;;;1.88;;
26634;SDS011;14490;54.208;37.686;2023-05-10T06:40:56;5.47;;;1.70;;
26634;SDS011;14490;54.208;37.686;2023-05-10T06:43:29;6.45;;;2.15;;
26634;SDS011;14490;54.208;37.686;2023-05-10T06:46:11;4.25;;;1.60;;
26634;SDS011;14490;54.208;37.686;2023-05-10T06:48:38;3.25;;;1.48;;
26634;SDS011;14490;54.208;37.686;2023-05-10T06:51:06;3.40;;;1.60;;
26634;SDS011;14490;54.208;37.686;2023-05-10T06:53:33;1.92;;;1.48;;
26634;SDS011;14490;54.208;37.686;2023-05-10T06:56:01;4.05;;;1.80;;
26634;SDS011;14490;54.208;37.686;2023-05-10T06:58:31;3.47;;;1.35;;
26634;SDS011;14490;54.208;37.686;2023-05-10T07:01:04;4.35;;;1.75;;
26634;SDS011;14490;54.208;37.686;2023-05-10T07:03:32;1.30;;;1.10;;
26634;SDS011;14490;54.208;37.686;2023-05-10T07:06:00;3.55;;;1.83;;
26634;SDS011;14490;54.208;37.686;2023-05-10T07:08:33;2.65;;;1.33;;
26634;SDS011;14490;54.208;37.686;2023-05-10T07:11:01;7.25;;;1.50;;
26634;SDS011;14490;54.208;37.686;2023-05-10T07:13:31;2.45;;;1.33;;
26634;SDS011;14490;54.208;37.686;2023-05-10T07:16:09;27.08;;;1.88;;
26634;SDS011;14490;54.208;37.686;2023-05-10T07:18:39;1.70;;;1.20;;
26634;SDS011;14490;54.208;37.686;2023-05-10T07:21:23;3.97;;;1.13;;
26634;SDS011;14490;54.208;37.686;2023-05-10T07:23:51;4.93;;;1.50;;
26634;SDS011;14490;54.208;37.686;2023-05-10T07:26:18;2.17;;;1.40;;
26634;SDS011;14490;54.208;37.686;2023-05-10T07:28:47;1.77;;;1.23;;
26634;SDS011;14490;54.208;37.686;2023-05-10T07:31:14;1.90;;;1.50;;
26634;SDS011;14490;54.208;37.686;2023-05-10T07:33:43;1.30;;;1.20;;
26634;SDS011;14490;54.208;37.686;2023-05-10T07:36:13;2.47;;;1.30;;
26634;SDS011;14490;54.208;37.686;2023-05-10T07:39:07;3.50;;;1.55;;
26634;SDS011;14490;54.208;37.686;2023-05-10T07:41:34;4.07;;;1.10;;
26634;SDS011;14490;54.208;37.686;2023-05-10T07:44:04;3.08;;;2.17;;
26634;SDS011;14490;54.208;37.686;2023-05-10T07:46:31;6.23;;;1.30;;
26634;SDS011;14490;54.208;37.686;2023-05-10T07:48:58;4.72;;;1.02;;
26634;SDS011;14490;54.208;37.686;2023-05-10T07:51:28;1.25;;;1.15;;
26634;SDS011;14490;54.208;37.686;2023-05-10T07:53:56;3.45;;;1.02;;
26634;SDS011;14490;54.208;37.686;2023-05-10T07:56:25;1.58;;;0.98;;
26634;SDS011;14490;54.208;37.686;2023-05-10T07:58:57;1.92;;;1.20;;
26634;SDS011;14490;54.208;37.686;2023-05-10T08:01:24;3.05;;;1.50;;
26634;SDS011;14490;54.208;37.686;2023-05-10T08:03:52;2.90;;;1.55;;
26634;SDS011;14490;54.208;37.686;2023-05-10T08:06:19;2.55;;;1.00;;
26634;SDS011;14490;54.208;37.686;2023-05-10T08:08:51;1.92;;;1.15;;
26634;SDS011;14490;54.208;37.686;2023-05-10T08:11:19;5.25;;;1.35;;
26634;SDS011;14490;54.208;37.686;2023-05-10T08:13:49;7.60;;;1.40;;
26634;SDS011;14490;54.208;37.686;2023-05-10T08:16:19;3.63;;;1.30;;
26634;SDS011;14490;54.208;37.686;2023-05-10T08:18:46;1.80;;;1.40;;
26634;SDS011;14490;54.208;37.686;2023-05-10T08:21:19;4.82;;;1.48;;
26634;SDS011;14490;54.208;37.686;2023-05-10T08:23:49;12.55;;;2.80;;
26634;SDS011;14490;54.208;37.686;2023-05-10T08:26:16;8.80;;;1.98;;
26634;SDS011;14490;54.208;37.686;2023-05-10T08:28:43;2.03;;;1.30;;
26634;SDS011;14490;54.208;37.686;2023-05-10T08:31:12;5.95;;;1.40;;
26634;SDS011;14490;54.208;37.686;2023-05-10T08:33:39;2.35;;;1.10;;
26634;SDS011;14490;54.208;37.686;2023-05-10T08:36:09;1.38;;;0.98;;
26634;SDS011;14490;54.208;37.686;2023-05-10T08:41:05;2.13;;;1.15;;
26634;SDS011;14490;54.208;37.686;2023-05-10T08:43:33;1.05;;;1.00;;
26634;SDS011;14490;54.208;37.686;2023-05-10T08:46:02;2.00;;;1.58;;
26634;SDS011;14490;54.208;37.686;2023-05-10T08:48:33;4.35;;;1.38;;
26634;SDS011;14490;54.208;37.686;2023-05-10T08:51:01;2.70;;;1.17;;
26634;SDS011;14490;54.208;37.686;2023-05-10T08:53:31;3.67;;;1.25;;
26634;SDS011;14490;54.208;37.686;2023-05-10T08:56:01;2.55;;;1.55;;
26634;SDS011;14490;54.208;37.686;2023-05-10T08:58:32;2.15;;;1.15;;
26634;SDS011;14490;54.208;37.686;2023-05-10T09:01:00;2.15;;;0.95;;
26634;SDS011;14490;54.208;37.686;2023-05-10T09:03:27;1.30;;;1.02;;
26634;SDS011;14490;54.208;37.686;2023-05-10T09:05:56;7.07;;;1.40;;
26634;SDS011;14490;54.208;37.686;2023-05-10T09:08:23;6.78;;;1.40;;
26634;SDS011;14490;54.208;37.686;2023-05-10T09:10:51;4.20;;;1.00;;
26634;SDS011;14490;54.208;37.686;2023-05-10T09:13:19;1.30;;;1.20;;
26634;SDS011;14490;54.208;37.686;2023-05-10T09:15:47;2.55;;;1.30;;
26634;SDS011;14490;54.208;37.686;2023-05-10T09:18:15;2.33;;;1.00;;
26634;SDS011;14490;54.208;37.686;2023-05-10T09:20:42;2.42;;;1.30;;
26634;SDS011;14490;54.208;37.686;2023-05-10T09:23:11;2.35;;;0.95;;
26634;SDS011;14490;54.208;37.686;2023-05-10T09:25:41;1.98;;;0.85;;
26634;SDS011;14490;54.208;37.686;2023-05-10T09:28:10;2.00;;;1.10;;
26634;SDS011;14490;54.208;37.686;2023-05-10T09:30:37;2.72;;;1.00;;
26634;SDS011;14490;54.208;37.686;2023-05-10T09:33:05;3.15;;;0.90;;
26634;SDS011;14490;54.208;37.686;2023-05-10T09:35:33;8.07;;;1.10;;
26634;SDS011;14490;54.208;37.686;2023-05-10T09:38:02;0.90;;;0.70;;
26634;SDS011;14490;54.208;37.686;2023-05-10T09:40:31;3.97;;;2.67;;
26634;SDS011;14490;54.208;37.686;2023-05-10T09:42:59;2.47;;;1.27;;
26634;SDS011;14490;54.208;37.686;2023-05-10T09:45:27;0.95;;;0.88;;
26634;SDS011;14490;54.208;37.686;2023-05-10T09:47:55;8.23;;;1.40;;
26634;SDS011;14490;54.208;37.686;2023-05-10T09:50:23;5.45;;;1.20;;
26634;SDS011;14490;54.208;37.686;2023-05-10T09:52:50;3.03;;;1.00;;
26634;SDS011;14490;54.208;37.686;2023-05-10T09:55:21;4.20;;;1.25;;
26634;SDS011;14490;54.208;37.686;2023-05-10T09:58:00;2.35;;;1.00;;
26634;SDS011;14490;54.208;37.686;2023-05-10T10:00:34;1.95;;;0.80;;
26634;SDS011;14490;54.208;37.686;2023-05-10T10:03:02;3.95;;;1.05;;
26634;SDS011;14490;54.208;37.686;2023-05-10T10:05:30;3.97;;;1.10;;
26634;SDS011;14490;54.208;37.686;2023-05-10T10:08:02;3.83;;;0.88;;
26634;SDS011;14490;54.208;37.686;2023-05-10T10:10:30;2.85;;;1.17;;
26634;SDS011;14490;54.208;37.686;2023-05-10T10:13:00;1.50;;;0.93;;
26634;SDS011;14490;54.208;37.686;2023-05-10T10:15:30;1.77;;;0.90;;
26634;SDS011;14490;54.208;37.686;2023-05-10T10:17:58;1.80;;;1.40;;
26634;SDS011;14490;54.208;37.686;2023-05-10T10:20:28;1.60;;;1.02;;
26634;SDS011;14490;54.208;37.686;2023-05-10T10:22:55;3.53;;;1.38;;
26634;SDS011;14490;54.208;37.686;2023-05-10T10:25:25;1.60;;;0.95;;
26634;SDS011;14490;54.208;37.686;2023-05-10T10:27:58;2.92;;;1.30;;
26634;SDS011;14490;54.208;37.686;2023-05-10T10:30:38;1.60;;;1.10;;
26634;SDS011;14490;54.208;37.686;2023-05-10T10:33:23;2.38;;;0.90;;
26634;SDS011;14490;54.208;37.686;2023-05-10T10:35:58;3.42;;;2.13;;
26634;SDS011;14490;54.208;37.686;2023-05-10T10:38:31;2.85;;;1.25;;
26634;SDS011;14490;54.208;37.686;2023-05-10T10:41:08;2.58;;;0.98;;
26634;SDS011;14490;54.208;37.686;2023-05-10T10:43:40;13.48;;;1.67;;
26634;SDS011;14490;54.208;37.686;2023-05-10T10:48:39;1.33;;;1.00;;
26634;SDS011;14490;54.208;37.686;2023-05-10T10:51:06;2.85;;;1.42;;
26634;SDS011;14490;54.208;37.686;2023-05-10T10:53:33;1.20;;;1.10;;
26634;SDS011;14490;54.208;37.686;2023-05-10T10:56:07;1.90;;;1.30;;
26634;SDS011;14490;54.208;37.686;2023-05-10T10:58:36;5.38;;;1.20;;
26634;SDS011;14490;54.208;37.686;2023-05-10T11:01:12;2.42;;;1.45;;
26634;SDS011;14490;54.208;37.686;2023-05-10T11:03:40;1.10;;;0.77;;
26634;SDS011;14490;54.208;37.686;2023-05-10T11:06:07;4.70;;;1.17;;
26634;SDS011;14490;54.208;37.686;2023-05-10T11:08:39;5.68;;;1.13;;
26634;SDS011;14490;54.208;37.686;2023-05-10T11:11:13;1.90;;;0.80;;
26634;SDS011;14490;54.208;37.686;2023-05-10T11:13:41;2.10;;;1.40;;
26634;SDS011;14490;54.208;37.686;2023-05-10T11:16:15;1.48;;;1.15;;
26634;SDS011;14490;54.208;37.686;2023-05-10T11:18:52;1.25;;;0.90;;
26634;SDS011;14490;54.208;37.686;2023-05-10T11:21:29;1.10;;;1.00;;
26634;SDS011;14490;54.208;37.686;2023-05-10T11:23:57;2.17;;;1.63;;
26634;SDS011;14490;54.208;37.686;2023-05-10T11:26:31;3.22;;;1.33;;
26634;SDS011;14490;54.208;37.686;2023-05-10T11:28:59;1.77;;;1.17;;
26634;SDS011;14490;54.208;37.686;2023-05-10T11:31:28;4.03;;;1.50;;
26634;SDS011;14490;54.208;37.686;2023-05-10T11:33:56;1.23;;;1.10;;
26634;SDS011;14490;54.208;37.686;2023-05-10T11:36:27;1.33;;;0.90;;
26634;SDS011;14490;54.208;37.686;2023-05-10T11:38:56;2.17;;;1.35;;
26634;SDS011;14490;54.208;37.686;2023-05-10T11:41:24;6.30;;;1.55;;
26634;SDS011;14490;54.208;37.686;2023-05-10T11:43:51;1.17;;;1.08;;
26634;SDS011;14490;54.208;37.686;2023-05-10T11:46:20;2.40;;;1.33;;
26634;SDS011;14490;54.208;37.686;2023-05-10T11:48:53;10.20;;;2.13;;
26634;SDS011;14490;54.208;37.686;2023-05-10T11:51:25;1.90;;;1.00;;
26634;SDS011;14490;54.208;37.686;2023-05-10T11:53:54;4.55;;;1.08;;
26634;SDS011;14490;54.208;37.686;2023-05-10T11:56:22;4.43;;;1.20;;
26634;SDS011;14490;54.208;37.686;2023-05-10T11:58:54;2.28;;;0.90;;
26634;SDS011;14490;54.208;37.686;2023-05-10T12:01:22;5.07;;;1.10;;
26634;SDS011;14490;54.208;37.686;2023-05-10T12:03:50;7.10;;;1.23;;
26634;SDS011;14490;54.208;37.686;2023-05-10T12:06:19;0.98;;;0.90;;
26634;SDS011;14490;54.208;37.686;2023-05-10T12:08:47;7.45;;;1.27;;
26634;SDS011;14490;54.208;37.686;2023-05-10T12:11:17;2.97;;;1.07;;
26634;SDS011;14490;54.208;37.686;2023-05-10T12:13:46;2.70;;;0.90;;
26634;SDS011;14490;54.208;37.686;2023-05-10T12:16:13;2.63;;;1.10;;
26634;SDS011;14490;54.208;37.686;2023-05-10T12:18:40;3.00;;;1.13;;
26634;SDS011;14490;54.208;37.686;2023-05-10T12:21:09;3.17;;;1.00;;
26634;SDS011;14490;54.208;37.686;2023-05-10T12:23:38;4.45;;;2.05;;
26634;SDS011;14490;54.208;37.686;2023-05-10T12:26:05;1.73;;;1.20;;
26634;SDS011;14490;54.208;37.686;2023-05-10T12:28:33;1.95;;;1.00;;
26634;SDS011;14490;54.208;37.686;2023-05-10T12:31:00;1.48;;;1.30;;
26634;SDS011;14490;54.208;37.686;2023-05-10T12:33:33;3.42;;;1.20;;
26634;SDS011;14490;54.208;37.686;2023-05-10T12:36:02;2.35;;;1.48;;
26634;SDS011;14490;54.208;37.686;2023-05-10T12:38:31;7.32;;;1.20;;
26634;SDS011;14490;54.208;37.686;2023-05-10T12:41:01;4.32;;;1.42;;
26634;SDS011;14490;54.208;37.686;2023-05-10T12:43:29;2.88;;;1.15;;
26634;SDS011;14490;54.208;37.686;2023-05-10T12:45:56;1.50;;;1.17;;
26634;SDS011;14490;54.208;37.686;2023-05-10T12:48:24;2.22;;;1.20;;
26634;SDS011;14490;54.208;37.686;2023-05-10T12:50:51;2.60;;;1.00;;
26634;SDS011;14490;54.208;37.686;2023-05-10T12:53:18;3.33;;;1.30;;
26634;SDS011;14490;54.208;37.686;2023-05-10T12:55:45;1.75;;;0.95;;
26634;SDS011;14490;54.208;37.686;2023-05-10T12:58:14;3.97;;;1.45;;
26634;SDS011;14490;54.208;37.686;2023-05-10T13:00:41;1.80;;;1.35;;
26634;SDS011;14490;54.208;37.686;2023-05-10T13:03:08;3.50;;;1.25;;
26634;SDS011;14490;54.208;37.686;2023-05-10T13:05:46;3.83;;;1.50;;
26634;SDS011;14490;54.208;37.686;2023-05-10T13:08:52;2.13;;;1.23;;
26634;SDS011;14490;54.208;37.686;2023-05-10T13:11:07;1.70;;;1.20;;
26634;SDS011;14490;54.208;37.686;2023-05-10T13:16:24;1.98;;;1.15;;
26634;SDS011;14490;54.208;37.686;2023-05-10T13:18:53;6.22;;;1.60;;
26634;SDS011;14490;54.208;37.686;2023-05-10T13:21:20;2.53;;;1.83;;
26634;SDS011;14490;54.208;37.686;2023-05-10T13:23:49;3.55;;;1.27;;
26634;SDS011;14490;54.208;37.686;2023-05-10T13:26:16;5.05;;;1.50;;
26634;SDS011;14490;54.208;37.686;2023-05-10T13:28:43;4.20;;;1.33;;
26634;SDS011;14490;54.208;37.686;2023-05-10T13:31:15;1.92;;;1.45;;
26634;SDS011;14490;54.208;37.686;2023-05-10T13:33:44;3.53;;;2.03;;
26634;SDS011;14490;54.208;37.686;2023-05-10T13:36:12;1.83;;;1.08;;
26634;SDS011;14490;54.208;37.686;2023-05-10T13:38:40;2.35;;;1.35;;
26634;SDS011;14490;54.208;37.686;2023-05-10T13:41:07;1.45;;;1.10;;
26634;SDS011;14490;54.208;37.686;2023-05-10T13:43:34;3.13;;;1.20;;
26634;SDS011;14490;54.208;37.686;2023-05-10T13:46:01;2.78;;;1.33;;
26634;SDS011;14490;54.208;37.686;2023-05-10T13:48:30;1.92;;;1.70;;
26634;SDS011;14490;54.208;37.686;2023-05-10T13:50:57;3.30;;;1.20;;
26634;SDS011;14490;54.208;37.686;2023-05-10T13:53:24;1.73;;;1.38;;
26634;SDS011;14490;54.208;37.686;2023-05-10T13:55:54;3.78;;;1.40;;
26634;SDS011;14490;54.208;37.686;2023-05-10T13:58:22;3.63;;;1.35;;
26634;SDS011;14490;54.208;37.686;2023-05-10T14:00:49;1.92;;;1.00;;
26634;SDS011;14490;54.208;37.686;2023-05-10T14:03:16;2.00;;;1.20;;
26634;SDS011;14490;54.208;37.686;2023-05-10T14:05:45;6.18;;;1.40;;
26634;SDS011;14490;54.208;37.686;2023-05-10T14:08:12;2.40;;;1.20;;
26634;SDS011;14490;54.208;37.686;2023-05-10T14:10:39;3.67;;;1.20;;
26634;SDS011;14490;54.208;37.686;2023-05-10T14:13:07;1.38;;;1.27;;
26634;SDS011;14490;54.208;37.686;2023-05-10T14:15:34;1.75;;;1.10;;
26634;SDS011;14490;54.208;37.686;2023-05-10T14:18:01;2.08;;;1.50;;
26634;SDS011;14490;54.208;37.686;2023-05-10T14:20:28;2.97;;;1.20;;
26634;SDS011;14490;54.208;37.686;2023-05-10T14:23:01;4.18;;;1.17;;
26634;SDS011;14490;54.208;37.686;2023-05-10T14:25:28;2.70;;;1.23;;
26634;SDS011;14490;54.208;37.686;2023-05-10T14:27:57;2.38;;;1.20;;
26634;SDS011;14490;54.208;37.686;2023-05-10T14:30:26;5.28;;;1.52;;
26634;SDS011;14490;54.208;37.686;2023-05-10T14:32:53;8.20;;;1.55;;
26634;SDS011;14490;54.208;37.686;2023-05-10T14:35:20;8.30;;;1.42;;
26634;SDS011;14490;54.208;37.686;2023-05-10T14:37:50;5.93;;;1.25;;
26634;SDS011;14490;54.208;37.686;2023-05-10T14:40:18;3.47;;;1.48;;
26634;SDS011;14490;54.208;37.686;2023-05-10T14:42:46;7.65;;;1.55;;
26634;SDS011;14490;54.208;37.686;2023-05-10T14:45:13;3.47;;;1.65;;
26634;SDS011;14490;54.208;37.686;2023-05-10T14:47:40;5.25;;;1.55;;
26634;SDS011;14490;54.208;37.686;2023-05-10T14:50:07;7.20;;;1.70;;
26634;SDS011;14490;54.208;37.686;2023-05-10T14:52:36;2.72;;;1.38;;
26634;SDS011;14490;54.208;37.686;2023-05-10T14:55:04;4.00;;;1.52;;
26634;SDS011;14490;54.208;37.686;2023-05-10T14:57:33;1.98;;;1.20;;
26634;SDS011;14490;54.208;37.686;2023-05-10T15:00:01;2.80;;;1.73;;
26634;SDS011;14490;54.208;37.686;2023-05-10T15:02:28;1.98;;;1.48;;